Time;durP1;ratioP1;P1;durP2;ratioP2;P2;SDS_P1;SDS_P2;PMS_P1;PMS_P2;Temp;Humidity;BMP_temperature;BMP_pressure;BME280_temperature;BME280_humidity;BME280_pressure;Samples;Min_cycle;Max_cycle;Signal;HPM_P1;HPM_P2
2022/10/26 00:00:38;;;;;;;9.63;2.50;;;;;;;;;;7363149;19;20314;-80
2022/10/26 00:03:03;;;;;;;13.32;2.55;;;;;;;;;;7355452;19;20715;-80
2022/10/26 00:05:31;;;;;;;14.23;2.83;;;;;;;;;;7360492;19;20014;-80
2022/10/26 00:07:56;;;;;;;11.00;2.65;;;;;;;;;;7374801;19;20247;-79
2022/10/26 00:10:21;;;;;;;13.15;2.90;;;;;;;;;;7373003;19;20352;-82
2022/10/26 00:12:47;;;;;;;12.65;2.78;;;;;;;;;;7357228;19;20062;-79
2022/10/26 00:15:12;;;;;;;17.23;2.88;;;;;;;;;;7360747;19;20002;-80
2022/10/26 00:17:37;;;;;;;8.30;2.42;;;;;;;;;;7369895;19;20015;-81
2022/10/26 00:20:03;;;;;;;14.30;3.07;;;;;;;;;;7374394;19;20472;-79
2022/10/26 00:22:28;;;;;;;7.85;2.92;;;;;;;;;;7372442;19;20297;-79
2022/10/26 00:24:53;;;;;;;10.67;4.07;;;;;;;;;;7368312;19;20025;-80
2022/10/26 00:27:18;;;;;;;11.93;3.20;;;;;;;;;;7370928;19;20589;-80
2022/10/26 00:29:43;;;;;;;12.57;3.40;;;;;;;;;;7366833;19;20435;-82
2022/10/26 00:32:09;;;;;;;10.37;3.53;;;;;;;;;;7376221;19;20260;-80
2022/10/26 00:34:34;;;;;;;13.63;3.20;;;;;;;;;;7384867;19;20227;-81
2022/10/26 00:36:59;;;;;;;13.95;2.83;;;;;;;;;;7374396;19;20298;-83
2022/10/26 00:39:24;;;;;;;13.80;3.15;;;;;;;;;;7380252;19;20332;-80
2022/10/26 00:41:49;;;;;;;11.07;3.00;;;;;;;;;;7379806;19;20003;-79
2022/10/26 00:44:33;;;;;;;7.57;3.03;;;;;;;;;;7383038;19;20015;-80
2022/10/26 00:46:59;;;;;;;11.23;2.60;;;;;;;;;;7373139;19;20256;-83
2022/10/26 00:49:24;;;;;;;8.25;3.08;;;;;;;;;;7378877;19;19995;-80
2022/10/26 00:51:50;;;;;;;12.98;3.40;;;;;;;;;;7380082;19;20019;-81
2022/10/26 00:54:17;;;;;;;8.70;2.95;;;;;;;;;;7345442;19;20115;-81
2022/10/26 00:56:43;;;;;;;13.35;3.65;;;;;;;;;;7374107;19;20021;-81
2022/10/26 00:59:10;;;;;;;9.00;3.65;;;;;;;;;;7363529;19;20094;-83
2022/10/26 01:01:36;;;;;;;16.65;3.90;;;;;;;;;;7370291;19;20015;-80
2022/10/26 01:04:01;;;;;;;8.57;3.42;;;;;;;;;;7381468;19;20002;-83
2022/10/26 01:06:28;;;;;;;14.98;3.47;;;;;;;;;;7376518;19;20010;-81
2022/10/26 01:08:53;;;;;;;12.85;3.58;;;;;;;;;;7371593;19;20022;-80
2022/10/26 01:11:18;;;;;;;13.67;3.33;;;;;;;;;;7380734;19;20023;-80
2022/10/26 01:13:45;;;;;;;15.80;3.33;;;;;;;;;;7382364;19;20259;-83
2022/10/26 01:16:16;;;;;;;11.05;2.90;;;;;;;;;;7380026;19;20023;-81
2022/10/26 01:18:58;;;;;;;14.00;3.95;;;;;;;;;;7381749;19;20024;-82
2022/10/26 01:21:32;;;;;;;9.68;3.08;;;;;;;;;;7367103;19;20159;-81
2022/10/26 01:24:12;;;;;;;9.73;3.00;;;;;;;;;;7377827;19;20631;-81
2022/10/26 01:26:56;;;;;;;7.53;2.42;;;;;;;;;;7370443;19;20070;-80
2022/10/26 01:29:39;;;;;;;12.13;3.00;;;;;;;;;;7381846;19;20048;-79
2022/10/26 01:32:10;;;;;;;9.50;2.83;;;;;;;;;;7381638;19;20006;-80
2022/10/26 01:34:54;;;;;;;9.48;2.78;;;;;;;;;;7375635;19;20010;-81
2022/10/26 01:37:22;;;;;;;16.48;3.13;;;;;;;;;;7349792;19;20066;-80
2022/10/26 01:39:52;;;;;;;10.73;2.83;;;;;;;;;;7377806;19;20014;-80
2022/10/26 01:42:20;;;;;;;11.27;2.80;;;;;;;;;;7366824;19;20014;-82
2022/10/26 01:44:48;;;;;;;14.73;3.05;;;;;;;;;;7382712;19;19998;-79
2022/10/26 01:47:14;;;;;;;12.38;2.50;;;;;;;;;;7369135;19;20081;-81
2022/10/26 01:49:47;;;;;;;8.50;3.00;;;;;;;;;;7380121;19;20002;-82
2022/10/26 01:52:12;;;;;;;12.60;3.45;;;;;;;;;;7380433;19;20014;-80
2022/10/26 01:54:37;;;;;;;7.85;2.88;;;;;;;;;;7379392;19;20475;-81
2022/10/26 01:57:04;;;;;;;14.63;2.80;;;;;;;;;;7375260;19;20007;-80
2022/10/26 01:59:35;;;;;;;11.57;2.80;;;;;;;;;;7370315;19;20010;-81
2022/10/26 02:02:11;;;;;;;12.40;3.22;;;;;;;;;;7371199;19;20002;-79
2022/10/26 02:04:42;;;;;;;12.15;3.10;;;;;;;;;;7376799;19;20003;-80
2022/10/26 02:07:22;;;;;;;9.43;2.53;;;;;;;;;;7368673;19;20018;-80
2022/10/26 02:09:58;;;;;;;11.57;2.97;;;;;;;;;;7353627;19;20048;-80
2022/10/26 02:12:32;;;;;;;10.35;3.20;;;;;;;;;;7366571;19;20022;-79
2022/10/26 02:15:27;;;;;;;7.43;2.20;;;;;;;;;;7361331;19;20002;-80
2022/10/26 02:17:52;;;;;;;;;;;;;;;;;;7365958;19;20139;-82
2022/10/26 02:20:20;;;;;;;10.52;2.95;;;;;;;;;;7381080;19;19915;-82
2022/10/26 02:22:47;;;;;;;8.13;2.78;;;;;;;;;;7375564;19;20002;-80
2022/10/26 02:25:25;;;;;;;12.38;2.72;;;;;;;;;;7375292;19;20455;-83
2022/10/26 02:27:54;;;;;;;6.70;2.33;;;;;;;;;;7379186;19;20356;-80
2022/10/26 02:30:19;;;;;;;9.52;2.78;;;;;;;;;;7379133;19;20022;-82
2022/10/26 02:32:47;;;;;;;7.50;2.33;;;;;;;;;;7375297;19;20006;-80
2022/10/26 02:35:13;;;;;;;10.65;2.40;;;;;;;;;;7372586;19;20007;-84
2022/10/26 02:37:39;;;;;;;10.10;2.70;;;;;;;;;;7372360;19;20408;-83
2022/10/26 02:40:08;;;;;;;7.25;2.30;;;;;;;;;;7375881;19;20006;-80
2022/10/26 02:42:34;;;;;;;8.20;2.47;;;;;;;;;;7367767;19;20102;-80
2022/10/26 02:45:01;;;;;;;8.13;2.65;;;;;;;;;;7375579;19;20034;-81
2022/10/26 02:47:27;;;;;;;10.85;2.58;;;;;;;;;;7379553;19;20007;-80
2022/10/26 02:49:53;;;;;;;9.95;2.50;;;;;;;;;;7374759;19;20884;-80
2022/10/26 02:52:23;;;;;;;8.80;2.40;;;;;;;;;;7352945;19;20006;-81
2022/10/26 02:54:55;;;;;;;7.13;2.28;;;;;;;;;;7370512;19;20005;-79
2022/10/26 02:57:38;;;;;;;9.63;2.30;;;;;;;;;;7378632;19;20013;-80
2022/10/26 03:00:04;;;;;;;8.30;2.40;;;;;;;;;;7364446;19;20547;-80
2022/10/26 03:02:29;;;;;;;6.90;2.08;;;;;;;;;;7371861;19;20014;-80
2022/10/26 03:04:54;;;;;;;7.07;2.37;;;;;;;;;;7374620;19;20066;-80
2022/10/26 03:07:20;;;;;;;9.85;2.40;;;;;;;;;;7379764;19;20010;-79
2022/10/26 03:09:45;;;;;;;10.48;2.10;;;;;;;;;;7376469;19;20007;-81
2022/10/26 03:12:11;;;;;;;10.63;2.27;;;;;;;;;;7378499;19;20035;-82
2022/10/26 03:14:36;;;;;;;7.30;2.15;;;;;;;;;;7365518;19;20231;-82
2022/10/26 03:17:01;;;;;;;9.33;2.40;;;;;;;;;;7378110;19;20058;-84
2022/10/26 03:19:26;;;;;;;8.40;2.20;;;;;;;;;;7380139;19;20812;-82
2022/10/26 03:21:51;;;;;;;9.73;2.27;;;;;;;;;;7373503;19;20451;-84
2022/10/26 03:24:16;;;;;;;8.67;1.83;;;;;;;;;;7364310;19;20227;-80
2022/10/26 03:26:42;;;;;;;10.98;2.22;;;;;;;;;;7376859;19;21193;-81
2022/10/26 03:29:07;;;;;;;8.02;2.03;;;;;;;;;;7378773;19;19995;-81
2022/10/26 03:31:33;;;;;;;8.18;2.15;;;;;;;;;;7365714;19;19995;-83
2022/10/26 03:33:58;;;;;;;8.98;1.98;;;;;;;;;;7377678;19;20030;-81
2022/10/26 03:36:23;;;;;;;8.35;2.30;;;;;;;;;;7378663;19;20007;-80
2022/10/26 03:38:48;;;;;;;8.40;1.93;;;;;;;;;;7371391;19;19995;-84
2022/10/26 03:41:14;;;;;;;10.37;2.50;;;;;;;;;;7369725;19;20279;-80
2022/10/26 03:43:39;;;;;;;9.93;2.30;;;;;;;;;;7373169;19;20244;-82
2022/10/26 03:46:04;;;;;;;10.27;2.70;;;;;;;;;;7373871;19;20383;-83
2022/10/26 03:48:29;;;;;;;6.10;1.70;;;;;;;;;;7375921;19;20251;-80
2022/10/26 03:50:58;;;;;;;4.90;2.00;;;;;;;;;;7374495;19;20038;-84
2022/10/26 03:53:23;;;;;;;10.27;2.28;;;;;;;;;;7374663;19;19999;-80
2022/10/26 03:55:48;;;;;;;8.93;2.15;;;;;;;;;;7368775;19;20126;-81
2022/10/26 03:58:14;;;;;;;5.80;1.60;;;;;;;;;;7365361;19;20017;-81
2022/10/26 04:00:39;;;;;;;8.93;1.92;;;;;;;;;;7376726;19;20054;-81
2022/10/26 04:03:04;;;;;;;6.05;1.70;;;;;;;;;;7376122;19;20015;-80
2022/10/26 04:05:29;;;;;;;5.33;1.40;;;;;;;;;;7367590;19;20070;-81
2022/10/26 04:07:56;;;;;;;7.87;1.83;;;;;;;;;;7375196;19;20243;-80
2022/10/26 04:10:22;;;;;;;8.85;1.88;;;;;;;;;;7375152;19;20950;-83
2022/10/26 04:12:47;;;;;;;8.98;1.83;;;;;;;;;;7376953;19;20014;-79
2022/10/26 04:15:12;;;;;;;5.03;1.65;;;;;;;;;;7368457;19;20454;-82
2022/10/26 04:17:37;;;;;;;8.20;2.10;;;;;;;;;;7373081;19;20054;-83
2022/10/26 04:20:03;;;;;;;6.17;1.70;;;;;;;;;;7349548;19;20298;-80
2022/10/26 04:22:28;;;;;;;10.40;1.38;;;;;;;;;;7363440;19;20259;-81
2022/10/26 04:24:53;;;;;;;7.77;1.77;;;;;;;;;;7372195;19;20010;-81
2022/10/26 04:27:18;;;;;;;6.23;1.50;;;;;;;;;;7377555;19;20231;-81
2022/10/26 04:29:43;;;;;;;4.43;1.73;;;;;;;;;;7376607;19;20297;-80
2022/10/26 04:32:09;;;;;;;6.63;1.60;;;;;;;;;;7348497;19;20082;-82
2022/10/26 04:34:34;;;;;;;10.03;2.17;;;;;;;;;;7374586;19;20259;-84
2022/10/26 04:36:59;;;;;;;6.95;1.80;;;;;;;;;;7373273;19;20243;-79
2022/10/26 04:39:24;;;;;;;7.50;1.53;;;;;;;;;;7361254;19;20572;-81
2022/10/26 04:41:49;;;;;;;6.97;1.80;;;;;;;;;;7373505;19;20231;-81
2022/10/26 04:44:15;;;;;;;9.18;1.80;;;;;;;;;;7375795;19;20475;-80
2022/10/26 04:46:40;;;;;;;8.10;1.40;;;;;;;;;;7375435;19;20478;-80
2022/10/26 04:49:05;;;;;;;6.40;1.60;;;;;;;;;;7368926;19;20003;-81
2022/10/26 04:51:30;;;;;;;12.18;1.67;;;;;;;;;;7378187;19;20288;-79
2022/10/26 04:53:57;;;;;;;7.70;1.47;;;;;;;;;;7356135;19;20078;-83
2022/10/26 04:56:22;;;;;;;8.43;1.80;;;;;;;;;;7367923;19;20247;-80
2022/10/26 04:58:47;;;;;;;6.77;1.70;;;;;;;;;;7368259;19;20034;-80
2022/10/26 05:01:12;;;;;;;9.57;1.77;;;;;;;;;;7373850;19;20978;-80
2022/10/26 05:03:37;;;;;;;5.63;1.30;;;;;;;;;;7362264;19;20336;-84
2022/10/26 05:06:03;;;;;;;10.68;1.83;;;;;;;;;;7371994;19;20259;-80
2022/10/26 05:08:31;;;;;;;11.02;1.83;;;;;;;;;;7375847;19;20035;-79
2022/10/26 05:10:56;;;;;;;6.82;1.38;;;;;;;;;;7370961;19;20010;-82
2022/10/26 05:13:21;;;;;;;5.63;1.40;;;;;;;;;;7358144;19;20734;-82
2022/10/26 05:15:47;;;;;;;10.88;1.75;;;;;;;;;;7374770;19;19998;-80
2022/10/26 05:18:12;;;;;;;9.27;1.48;;;;;;;;;;7378135;19;20040;-81
2022/10/26 05:20:37;;;;;;;4.37;1.40;;;;;;;;;;7372617;19;20817;-80
2022/10/26 05:23:03;;;;;;;6.28;1.60;;;;;;;;;;7378285;19;20255;-83
2022/10/26 05:25:30;;;;;;;12.98;2.17;;;;;;;;;;7376493;19;20352;-79
2022/10/26 05:27:58;;;;;;;6.25;1.58;;;;;;;;;;7379932;19;20010;-80
2022/10/26 05:30:24;;;;;;;10.05;1.73;;;;;;;;;;7375308;19;20005;-80
2022/10/26 05:32:53;;;;;;;6.27;2.07;;;;;;;;;;7382449;19;20090;-81
2022/10/26 05:35:18;;;;;;;9.20;1.85;;;;;;;;;;7381761;19;20251;-79
2022/10/26 05:37:43;;;;;;;9.23;1.73;;;;;;;;;;7371061;19;20603;-81
2022/10/26 05:40:09;;;;;;;6.40;1.70;;;;;;;;;;7378740;19;20019;-80
2022/10/26 05:42:34;;;;;;;8.52;2.10;;;;;;;;;;7370897;19;20495;-80
2022/10/26 05:44:59;;;;;;;6.22;2.03;;;;;;;;;;7378411;19;20082;-84
2022/10/26 05:47:24;;;;;;;10.23;2.75;;;;;;;;;;7364597;19;20011;-84
2022/10/26 05:49:49;;;;;;;6.27;1.77;;;;;;;;;;7377461;19;20022;-81
2022/10/26 05:52:14;;;;;;;7.20;1.67;;;;;;;;;;7348859;19;20610;-82
2022/10/26 05:54:40;;;;;;;8.83;1.80;;;;;;;;;;7366755;19;20257;-80
2022/10/26 05:57:09;;;;;;;6.25;2.00;;;;;;;;;;7377224;19;20232;-80
2022/10/26 05:59:34;;;;;;;7.50;1.85;;;;;;;;;;7381917;19;20098;-80
2022/10/26 06:02:08;;;;;;;7.32;2.20;;;;;;;;;;7374219;19;20044;-81
2022/10/26 06:04:40;;;;;;;6.35;1.88;;;;;;;;;;7380743;19;20007;-81
2022/10/26 06:07:10;;;;;;;5.72;1.80;;;;;;;;;;7382437;19;20010;-80
2022/10/26 06:09:35;;;;;;;7.32;2.17;;;;;;;;;;7366753;19;20460;-82
2022/10/26 06:12:01;;;;;;;5.18;1.75;;;;;;;;;;7380663;19;20006;-82
2022/10/26 06:14:26;;;;;;;6.18;2.20;;;;;;;;;;7379478;19;20009;-80
2022/10/26 06:17:02;;;;;;;6.65;2.13;;;;;;;;;;7376234;19;20003;-79
2022/10/26 06:19:27;;;;;;;7.65;2.50;;;;;;;;;;7376007;19;20010;-81
2022/10/26 06:21:59;;;;;;;10.80;2.50;;;;;;;;;;7381446;19;20450;-80
2022/10/26 06:24:33;;;;;;;7.90;2.25;;;;;;;;;;7373225;19;20015;-80
2022/10/26 06:27:01;;;;;;;8.02;2.00;;;;;;;;;;7375912;19;20514;-82
2022/10/26 06:29:47;;;;;;;7.15;2.38;;;;;;;;;;7379104;19;20003;-81
2022/10/26 06:32:12;;;;;;;6.55;2.15;;;;;;;;;;7373039;19;20026;-80
2022/10/26 06:34:42;;;;;;;9.40;2.38;;;;;;;;;;7379430;19;20003;-82
2022/10/26 06:37:07;;;;;;;10.40;2.47;;;;;;;;;;7379391;19;20046;-83
2022/10/26 06:39:35;;;;;;;5.50;2.28;;;;;;;;;;7377171;19;20585;-81
2022/10/26 06:42:00;;;;;;;16.67;3.05;;;;;;;;;;7380017;19;20011;-80
2022/10/26 06:44:26;;;;;;;9.65;2.50;;;;;;;;;;7379268;19;20007;-81
2022/10/26 06:47:00;;;;;;;7.28;2.40;;;;;;;;;;7377418;19;20031;-81
2022/10/26 06:49:34;;;;;;;8.88;2.30;;;;;;;;;;7371977;19;20006;-81
2022/10/26 06:52:17;;;;;;;9.40;2.42;;;;;;;;;;7378853;19;20011;-81
2022/10/26 06:54:53;;;;;;;7.75;2.50;;;;;;;;;;7369146;19;20015;-79
2022/10/26 06:57:19;;;;;;;11.70;2.58;;;;;;;;;;7378704;19;20001;-80
2022/10/26 06:59:47;;;;;;;9.25;3.28;;;;;;;;;;7372989;19;20467;-80
2022/10/26 07:02:13;;;;;;;8.63;2.50;;;;;;;;;;7341153;19;20038;-81
2022/10/26 07:04:39;;;;;;;10.00;2.60;;;;;;;;;;7379949;19;19999;-80
2022/10/26 07:07:04;;;;;;;6.45;2.35;;;;;;;;;;7368096;19;20015;-80
2022/10/26 07:09:29;;;;;;;8.23;2.53;;;;;;;;;;7368963;19;20458;-80
2022/10/26 07:11:54;;;;;;;11.73;2.80;;;;;;;;;;7374357;19;20268;-80
2022/10/26 07:14:19;;;;;;;10.27;2.70;;;;;;;;;;7374038;19;20486;-80
2022/10/26 07:16:44;;;;;;;6.47;2.67;;;;;;;;;;7374135;19;20259;-80
2022/10/26 07:19:10;;;;;;;9.35;2.50;;;;;;;;;;7378609;19;20392;-80
2022/10/26 07:21:35;;;;;;;12.20;3.00;;;;;;;;;;7377962;19;20624;-80
2022/10/26 07:24:00;;;;;;;7.07;2.50;;;;;;;;;;7368122;19;20243;-81
2022/10/26 07:26:26;;;;;;;9.05;2.80;;;;;;;;;;7358060;19;20357;-81
2022/10/26 07:28:51;;;;;;;10.60;2.75;;;;;;;;;;7376639;19;20010;-81
2022/10/26 07:31:16;;;;;;;9.25;2.92;;;;;;;;;;7378442;19;20903;-80
2022/10/26 07:33:43;;;;;;;12.68;3.28;;;;;;;;;;7368245;19;20009;-81
2022/10/26 07:36:09;;;;;;;9.32;3.03;;;;;;;;;;7379036;19;19994;-80
2022/10/26 07:38:35;;;;;;;15.15;3.75;;;;;;;;;;7380020;19;20082;-82
2022/10/26 07:41:01;;;;;;;14.55;3.25;;;;;;;;;;7340615;19;20495;-81
2022/10/26 07:43:26;;;;;;;11.48;3.00;;;;;;;;;;7375599;19;20142;-81
2022/10/26 07:45:51;;;;;;;12.43;3.10;;;;;;;;;;7375884;19;20478;-80
2022/10/26 07:48:16;;;;;;;9.52;2.92;;;;;;;;;;7362958;19;20263;-81
2022/10/26 07:50:41;;;;;;;7.37;3.00;;;;;;;;;;7375643;19;20006;-80
2022/10/26 07:53:07;;;;;;;12.53;2.60;;;;;;;;;;7375115;19;20117;-80
2022/10/26 07:55:32;;;;;;;10.15;3.05;;;;;;;;;;7368238;19;20270;-80
2022/10/26 07:57:57;;;;;;;9.00;3.05;;;;;;;;;;7371972;19;20017;-81
2022/10/26 08:00:22;;;;;;;10.40;3.00;;;;;;;;;;7378545;19;20082;-80
2022/10/26 08:02:48;;;;;;;8.40;2.72;;;;;;;;;;7376968;19;20526;-80
2022/10/26 08:05:13;;;;;;;11.82;3.20;;;;;;;;;;7366608;19;20001;-81
2022/10/26 08:07:42;;;;;;;9.18;3.08;;;;;;;;;;7367790;19;20019;-81
2022/10/26 08:10:07;;;;;;;12.30;3.13;;;;;;;;;;7370783;19;20010;-80
2022/10/26 08:12:33;;;;;;;13.93;3.70;;;;;;;;;;7376313;19;20411;-80
2022/10/26 08:14:58;;;;;;;13.80;4.00;;;;;;;;;;7365589;19;20341;-81
2022/10/26 08:17:23;;;;;;;10.80;3.43;;;;;;;;;;7374367;19;20254;-81
2022/10/26 08:19:48;;;;;;;11.17;3.67;;;;;;;;;;7367520;19;20979;-80
2022/10/26 08:22:13;;;;;;;13.13;3.33;;;;;;;;;;7373336;19;20021;-80
2022/10/26 08:24:39;;;;;;;10.65;3.53;;;;;;;;;;7374303;19;20495;-81
2022/10/26 08:27:05;;;;;;;9.75;3.28;;;;;;;;;;7364601;19;20086;-81
2022/10/26 08:29:30;;;;;;;10.68;3.40;;;;;;;;;;7373950;19;20404;-81
2022/10/26 08:31:56;;;;;;;12.77;3.43;;;;;;;;;;7377132;19;20003;-80
2022/10/26 08:34:21;;;;;;;9.27;3.80;;;;;;;;;;7366324;19;20247;-82
2022/10/26 08:36:46;;;;;;;8.68;3.33;;;;;;;;;;7365743;19;19998;-81
2022/10/26 08:39:11;;;;;;;9.43;3.45;;;;;;;;;;7370724;19;20007;-80
2022/10/26 08:41:39;;;;;;;11.37;3.43;;;;;;;;;;7375868;19;20047;-81
2022/10/26 08:44:23;;;;;;;12.55;3.60;;;;;;;;;;7375412;19;20250;-80
2022/10/26 08:46:50;;;;;;;12.02;3.97;;;;;;;;;;7370454;19;20012;-81
2022/10/26 08:49:19;;;;;;;12.25;4.57;;;;;;;;;;7367197;19;20019;-80
2022/10/26 08:51:44;;;;;;;15.50;3.95;;;;;;;;;;7367695;19;20010;-80
2022/10/26 08:54:42;;;;;;;9.13;3.60;;;;;;;;;;7372524;19;20771;-80
2022/10/26 08:57:30;;;;;;;11.20;3.75;;;;;;;;;;7351816;19;20018;-81
2022/10/26 09:00:01;;;;;;;10.07;3.75;;;;;;;;;;7374774;19;20488;-80
2022/10/26 09:02:27;;;;;;;11.23;3.47;;;;;;;;;;7369620;19;20520;-80
2022/10/26 09:04:52;;;;;;;13.07;3.80;;;;;;;;;;7370030;19;20007;-80
2022/10/26 09:07:36;;;;;;;17.08;4.47;;;;;;;;;;7333750;19;20020;-80
2022/10/26 09:10:22;;;;;;;11.35;3.63;;;;;;;;;;7370705;19;20500;-81
2022/10/26 09:12:50;;;;;;;12.75;4.05;;;;;;;;;;7378894;19;20018;-80
2022/10/26 09:15:21;;;;;;;16.23;4.00;;;;;;;;;;7375802;19;20699;-81
2022/10/26 09:17:52;;;;;;;14.43;3.38;;;;;;;;;;7378458;19;20022;-80
2022/10/26 09:20:33;;;;;;;14.30;3.35;;;;;;;;;;7382590;19;20003;-81
2022/10/26 09:23:10;;;;;;;9.88;3.53;;;;;;;;;;7374651;19;20040;-80
2022/10/26 09:25:39;;;;;;;10.10;4.05;;;;;;;;;;7358936;19;20330;-81
2022/10/26 09:28:08;;;;;;;11.93;3.97;;;;;;;;;;7381781;19;20015;-80
2022/10/26 09:30:34;;;;;;;14.02;4.20;;;;;;;;;;7372168;19;20025;-80
2022/10/26 09:33:07;;;;;;;11.95;3.80;;;;;;;;;;7379691;19;20027;-80
2022/10/26 09:35:40;;;;;;;9.47;3.27;;;;;;;;;;7380223;19;20510;-80
2022/10/26 09:38:13;;;;;;;10.00;3.55;;;;;;;;;;7368250;19;20258;-80
2022/10/26 09:40:40;;;;;;;11.90;3.63;;;;;;;;;;7375211;19;20063;-81
2022/10/26 09:43:10;;;;;;;7.63;3.40;;;;;;;;;;7379017;19;20014;-80
2022/10/26 09:45:37;;;;;;;11.15;3.90;;;;;;;;;;7377488;19;20019;-80
2022/10/26 09:48:22;;;;;;;12.07;3.22;;;;;;;;;;7378266;19;20010;-81
2022/10/26 09:50:50;;;;;;;12.80;3.08;;;;;;;;;;7382011;19;20074;-80
2022/10/26 09:53:15;;;;;;;14.07;3.22;;;;;;;;;;7370742;19;20014;-81
2022/10/26 09:55:42;;;;;;;8.00;3.25;;;;;;;;;;7368562;19;20041;-80
2022/10/26 09:58:12;;;;;;;14.52;2.97;;;;;;;;;;7381245;19;20010;-80
2022/10/26 10:00:37;;;;;;;11.50;3.60;;;;;;;;;;7367901;19;20014;-80
2022/10/26 10:03:15;;;;;;;9.18;3.00;;;;;;;;;;7379068;19;20013;-80
2022/10/26 10:05:40;;;;;;;17.77;3.45;;;;;;;;;;7376353;19;20470;-80
2022/10/26 10:08:24;;;;;;;7.93;2.97;;;;;;;;;;7376060;19;20010;-80
2022/10/26 10:10:52;;;;;;;10.18;2.80;;;;;;;;;;7380768;19;20346;-81
2022/10/26 10:13:19;;;;;;;14.80;2.90;;;;;;;;;;7382359;19;20109;-80
2022/10/26 10:15:52;;;;;;;16.92;3.22;;;;;;;;;;7377002;19;20691;-80
2022/10/26 10:18:18;;;;;;;11.68;2.72;;;;;;;;;;7380720;19;20015;-80
2022/10/26 10:20:49;;;;;;;12.18;2.55;;;;;;;;;;7378477;19;20020;-80
2022/10/26 10:23:23;;;;;;;13.52;2.85;;;;;;;;;;7373575;19;20007;-80
2022/10/26 10:25:56;;;;;;;12.70;3.38;;;;;;;;;;7366357;19;20003;-81
2022/10/26 10:28:23;;;;;;;10.23;2.80;;;;;;;;;;7380120;19;20011;-79
2022/10/26 10:30:53;;;;;;;12.93;2.85;;;;;;;;;;7376150;19;20239;-80
2022/10/26 10:33:18;;;;;;;10.57;3.00;;;;;;;;;;7380063;19;20025;-81
2022/10/26 10:35:48;;;;;;;7.80;2.00;;;;;;;;;;7371927;19;20358;-79
2022/10/26 10:38:18;;;;;;;7.90;3.00;;;;;;;;;;7377700;19;20936;-79
2022/10/26 10:40:51;;;;;;;10.50;2.65;;;;;;;;;;7324060;19;20018;-79
2022/10/26 10:43:16;;;;;;;12.40;2.55;;;;;;;;;;7372714;19;20010;-81
2022/10/26 10:45:46;;;;;;;10.33;2.17;;;;;;;;;;7365922;19;20752;-81
2022/10/26 10:48:11;;;;;;;7.90;2.40;;;;;;;;;;7362891;19;21171;-81
2022/10/26 10:50:36;;;;;;;8.90;2.33;;;;;;;;;;7359220;19;19994;-80
2022/10/26 10:53:18;;;;;;;8.82;2.33;;;;;;;;;;7359694;19;20455;-81
2022/10/26 10:55:51;;;;;;;7.78;1.80;;;;;;;;;;7352522;19;20022;-81
2022/10/26 10:58:22;;;;;;;9.45;2.05;;;;;;;;;;7345704;19;20018;-80
2022/10/26 11:00:48;;;;;;;9.60;1.90;;;;;;;;;;7364992;19;20003;-81
2022/10/26 11:03:15;;;;;;;9.45;2.28;;;;;;;;;;7337164;19;20229;-81
2022/10/26 11:05:58;;;;;;;12.05;2.22;;;;;;;;;;7353843;19;20884;-80
2022/10/26 11:08:30;;;;;;;6.50;1.80;;;;;;;;;;7343874;19;20010;-81
2022/10/26 11:11:13;;;;;;;21.48;2.75;;;;;;;;;;7358397;19;19995;-81
2022/10/26 11:13:42;;;;;;;8.88;2.08;;;;;;;;;;7359022;19;20897;-81
2022/10/26 11:16:12;;;;;;;8.45;2.00;;;;;;;;;;7351829;19;19995;-81
2022/10/26 11:18:43;;;;;;;6.97;1.98;;;;;;;;;;7365355;19;20837;-80
2022/10/26 11:21:14;;;;;;;15.68;1.75;;;;;;;;;;7373944;19;20014;-81
2022/10/26 11:23:45;;;;;;;9.18;1.58;;;;;;;;;;7362099;19;20013;-81
2022/10/26 11:26:16;;;;;;;5.43;1.73;;;;;;;;;;7348552;19;20114;-80
2022/10/26 11:29:00;;;;;;;6.82;1.60;;;;;;;;;;7353738;19;20018;-81
2022/10/26 11:31:31;;;;;;;6.93;1.83;;;;;;;;;;7363333;19;20618;-81
2022/10/26 11:34:12;;;;;;;4.93;1.42;;;;;;;;;;7362226;19;20351;-81
2022/10/26 11:36:39;;;;;;;5.40;1.48;;;;;;;;;;7348885;19;20014;-82
2022/10/26 11:39:40;;;;;;;9.20;2.15;;;;;;;;;;7333683;19;20042;-81
2022/10/26 11:42:10;;;;;;;11.75;1.83;;;;;;;;;;7365122;19;19999;-82
2022/10/26 11:44:40;;;;;;;12.07;2.13;;;;;;;;;;7373948;19;20354;-81
2022/10/26 11:47:11;;;;;;;4.60;1.50;;;;;;;;;;7367790;19;20014;-83
2022/10/26 11:49:39;;;;;;;4.80;1.60;;;;;;;;;;7377515;19;19999;-83
2022/10/26 11:52:10;;;;;;;8.95;1.65;;;;;;;;;;7376096;19;20046;-83
2022/10/26 11:54:52;;;;;;;6.95;1.58;;;;;;;;;;7359315;19;19998;-82
2022/10/26 11:57:18;;;;;;;9.13;1.63;;;;;;;;;;7359519;19;20014;-82
2022/10/26 11:59:51;;;;;;;4.78;1.70;;;;;;;;;;7341431;19;20023;-81
2022/10/26 12:02:19;;;;;;;6.82;1.90;;;;;;;;;;7361318;19;20002;-81
2022/10/26 12:04:46;;;;;;;6.35;1.40;;;;;;;;;;7366727;19;20010;-81
2022/10/26 12:07:25;;;;;;;4.72;1.60;;;;;;;;;;7366547;19;20518;-81
2022/10/26 12:09:51;;;;;;;7.38;1.52;;;;;;;;;;7353858;19;20002;-80
2022/10/26 12:12:20;;;;;;;10.13;1.55;;;;;;;;;;7342977;19;20365;-82
2022/10/26 12:14:51;;;;;;;8.05;1.67;;;;;;;;;;7358715;19;20006;-81
2022/10/26 12:17:25;;;;;;;5.53;1.70;;;;;;;;;;7372740;19;20691;-81
2022/10/26 12:19:54;;;;;;;4.72;1.17;;;;;;;;;;7371052;19;20494;-83
2022/10/26 12:22:21;;;;;;;7.80;1.40;;;;;;;;;;7364995;19;20010;-81
2022/10/26 12:25:04;;;;;;;6.32;1.20;;;;;;;;;;7371037;19;20006;-81
2022/10/26 12:27:31;;;;;;;6.75;1.50;;;;;;;;;;7377664;19;20041;-81
2022/10/26 12:30:15;;;;;;;9.55;1.52;;;;;;;;;;7384594;19;20014;-82
2022/10/26 12:32:40;;;;;;;;;;;;;;;;;;7376281;19;20019;-81
2022/10/26 12:35:24;;;;;;;4.70;1.17;;;;;;;;;;7368585;19;19953;-83
2022/10/26 12:37:49;;;;;;;;;;;;;;;;;;7376112;19;20002;-81
2022/10/26 12:40:33;;;;;;;5.70;1.17;;;;;;;;;;7371370;19;19918;-82
2022/10/26 12:43:13;;;;;;;7.97;1.48;;;;;;;;;;7382198;19;20031;-81
2022/10/26 12:45:38;;;;;;;6.03;1.60;;;;;;;;;;7369817;19;20003;-82
2022/10/26 12:48:04;;;;;;;7.75;1.20;;;;;;;;;;7362361;19;20017;-82
2022/10/26 12:50:30;;;;;;;6.57;1.27;;;;;;;;;;7371884;19;20018;-81
2022/10/26 12:52:56;;;;;;;6.07;1.33;;;;;;;;;;7367031;19;20323;-81
2022/10/26 12:55:38;;;;;;;12.80;1.80;;;;;;;;;;7372832;19;20033;-82
2022/10/26 12:58:18;;;;;;;4.07;1.05;;;;;;;;;;7370671;19;20061;-82
2022/10/26 13:00:47;;;;;;;4.50;1.10;;;;;;;;;;7368446;19;20029;-82
2022/10/26 13:03:12;;;;;;;6.65;1.40;;;;;;;;;;7377103;19;20017;-81
2022/10/26 13:05:56;;;;;;;3.97;1.00;;;;;;;;;;7360270;19;19998;-81
2022/10/26 13:08:21;;;;;;;4.78;1.00;;;;;;;;;;7364293;19;20010;-82
2022/10/26 13:11:01;;;;;;;5.67;1.07;;;;;;;;;;7369082;19;20077;-81
2022/10/26 13:13:28;;;;;;;4.72;1.00;;;;;;;;;;7337816;19;21016;-82
2022/10/26 13:15:54;;;;;;;6.85;0.95;;;;;;;;;;7368604;19;20002;-81
2022/10/26 13:18:20;;;;;;;4.90;1.02;;;;;;;;;;7369899;19;20032;-80
2022/10/26 13:21:04;;;;;;;5.65;1.10;;;;;;;;;;7363942;19;20014;-80
2022/10/26 13:23:29;;;;;;;;;;;;;;;;;;7365320;19;20014;-81
2022/10/26 13:26:21;;;;;;;4.75;1.10;;;;;;;;;;7364548;19;19929;-82
2022/10/26 13:28:48;;;;;;;3.95;1.00;;;;;;;;;;7380664;19;20030;-81
